createdAt,value
2022-11-30T00:01:19.551Z,28.10
2022-11-30T00:02:53.869Z,25.13
2022-11-30T00:04:26.718Z,28.83
2022-11-30T00:06:04.593Z,28.65
2022-11-30T00:07:36.958Z,27.58
2022-11-30T00:09:08.566Z,29.13
2022-11-30T00:10:40.905Z,30.30
2022-11-30T00:12:12.466Z,30.83
2022-11-30T00:13:44.223Z,30.23
2022-11-30T00:15:17.547Z,28.10
2022-11-30T00:16:49.273Z,27.83
2022-11-30T00:18:20.900Z,27.58
2022-11-30T00:19:52.485Z,28.90
2022-11-30T00:21:24.043Z,28.48
2022-11-30T00:22:57.258Z,33.03
2022-11-30T00:24:28.856Z,38.67
2022-11-30T00:26:02.695Z,31.25
2022-11-30T00:27:35.193Z,33.72
2022-11-30T00:29:06.765Z,29.77
2022-11-30T00:30:38.343Z,29.88
2022-11-30T00:32:09.960Z,36.60
2022-11-30T00:33:41.745Z,30.58
2022-11-30T00:35:13.302Z,28.10
2022-11-30T00:36:44.891Z,33.78
2022-11-30T00:38:21.604Z,29.75
2022-11-30T00:39:53.200Z,34.00
2022-11-30T00:41:24.869Z,35.90
2022-11-30T00:42:59.288Z,32.53
2022-11-30T00:44:30.845Z,33.40
2022-11-30T00:46:02.515Z,35.15
2022-11-30T00:47:34.230Z,32.75
2022-11-30T00:49:05.852Z,33.72
2022-11-30T00:50:37.548Z,32.58
2022-11-30T00:52:09.181Z,28.65
2022-11-30T00:53:41.833Z,34.40
2022-11-30T00:55:13.378Z,33.17
2022-11-30T00:56:45.096Z,29.70
2022-11-30T00:58:17.737Z,34.20
2022-11-30T00:59:49.479Z,32.50
2022-11-30T01:01:21.147Z,35.40
2022-11-30T01:02:56.836Z,36.20
2022-11-30T01:04:28.429Z,38.35
2022-11-30T01:06:07.631Z,35.65
2022-11-30T01:07:39.267Z,34.10
2022-11-30T01:09:10.921Z,31.95
2022-11-30T01:10:44.382Z,35.35
2022-11-30T01:12:15.990Z,34.35
2022-11-30T01:13:47.682Z,38.28
2022-11-30T01:15:19.275Z,39.47
2022-11-30T01:16:55.950Z,35.58
2022-11-30T01:18:27.831Z,31.83
2022-11-30T01:19:59.564Z,31.30
2022-11-30T01:21:31.216Z,31.35
2022-11-30T01:23:02.818Z,33.92
2022-11-30T01:24:34.422Z,33.13
2022-11-30T01:26:06.738Z,32.72
2022-11-30T01:27:38.399Z,35.33
2022-11-30T01:29:09.966Z,36.97
2022-11-30T01:30:41.964Z,33.78
2022-11-30T01:32:13.498Z,28.02
2022-11-30T01:33:49.474Z,36.58
2022-11-30T01:36:52.507Z,35.42
2022-11-30T01:38:24.053Z,34.75
2022-11-30T01:39:55.668Z,31.00
2022-11-30T01:41:32.101Z,33.30
2022-11-30T01:43:03.909Z,35.03
2022-11-30T01:44:48.418Z,35.50
2022-11-30T01:46:34.469Z,33.05
2022-11-30T01:48:08.706Z,31.02
2022-11-30T01:49:46.982Z,35.65
2022-11-30T01:51:18.683Z,31.80
2022-11-30T01:52:56.721Z,31.80
2022-11-30T01:54:42.619Z,35.10
2022-11-30T01:56:14.424Z,32.92
2022-11-30T01:57:51.529Z,30.67
2022-11-30T01:59:27.564Z,34.53
2022-11-30T02:03:06.500Z,34.47
2022-11-30T02:04:38.612Z,34.85
2022-11-30T02:06:10.730Z,33.35
2022-11-30T02:07:43.012Z,27.65
2022-11-30T02:09:17.988Z,34.45
2022-11-30T02:10:54.731Z,30.20
2022-11-30T02:12:52.192Z,33.22
2022-11-30T02:14:29.613Z,27.02
2022-11-30T02:16:19.227Z,30.42
2022-11-30T02:18:01.337Z,30.77
2022-11-30T02:19:50.853Z,28.08
2022-11-30T02:21:40.270Z,29.42
2022-11-30T02:23:27.705Z,32.35
2022-11-30T02:25:43.677Z,30.08
2022-11-30T02:27:27.097Z,27.83
2022-11-30T02:29:24.650Z,28.38
2022-11-30T02:31:02.217Z,27.77
2022-11-30T02:32:44.723Z,30.40
2022-11-30T02:34:20.583Z,29.52
2022-11-30T02:35:55.499Z,30.85
2022-11-30T02:37:28.605Z,26.70
2022-11-30T02:39:03.476Z,26.73
2022-11-30T02:40:35.106Z,27.30
2022-11-30T02:42:12.605Z,24.00
2022-11-30T02:43:45.079Z,30.45
2022-11-30T02:45:17.281Z,25.58
2022-11-30T02:46:53.132Z,24.90
2022-11-30T02:48:37.640Z,25.50
2022-11-30T02:50:43.618Z,25.75
2022-11-30T02:52:16.751Z,26.25
2022-11-30T02:53:49.354Z,27.10
2022-11-30T02:55:21.379Z,26.02
2022-11-30T02:56:53.008Z,27.02
2022-11-30T02:58:24.771Z,26.65
2022-11-30T02:59:57.381Z,25.42
2022-11-30T03:01:29.037Z,25.40
2022-11-30T03:03:00.861Z,22.75
2022-11-30T03:04:32.531Z,25.83
2022-11-30T03:06:04.394Z,26.17
2022-11-30T03:07:36.233Z,23.30
2022-11-30T03:09:08.092Z,27.70
2022-11-30T03:10:39.760Z,22.90
2022-11-30T03:12:11.365Z,24.33
2022-11-30T03:13:42.944Z,25.95
2022-11-30T03:15:14.643Z,23.75
2022-11-30T03:16:46.272Z,24.52
2022-11-30T03:18:17.891Z,23.02
2022-11-30T03:19:49.448Z,21.67
2022-11-30T03:21:21.149Z,22.45
2022-11-30T03:22:52.754Z,23.52
2022-11-30T03:24:24.449Z,25.33
2022-11-30T03:25:59.155Z,25.35
2022-11-30T03:27:30.742Z,22.17
2022-11-30T03:29:02.474Z,22.48
2022-11-30T03:30:34.077Z,24.30
2022-11-30T03:32:06.229Z,27.80
2022-11-30T03:33:37.800Z,22.15
2022-11-30T03:35:09.408Z,24.80
2022-11-30T03:36:41.032Z,24.98
2022-11-30T03:38:12.683Z,25.10
2022-11-30T03:39:44.441Z,22.60
2022-11-30T03:41:17.943Z,22.05
2022-11-30T03:42:49.499Z,22.05
2022-11-30T03:44:21.073Z,23.90
2022-11-30T03:45:52.633Z,22.10
2022-11-30T03:47:24.170Z,21.65
2022-11-30T03:48:55.726Z,20.30
2022-11-30T03:50:27.288Z,20.75
2022-11-30T03:51:59.001Z,20.23
2022-11-30T03:53:31.706Z,22.88
2022-11-30T03:55:03.399Z,21.35
2022-11-30T03:56:34.996Z,21.40
2022-11-30T03:58:06.664Z,20.17
2022-11-30T03:59:38.376Z,18.25
2022-11-30T04:01:16.466Z,21.88
2022-11-30T04:02:48.079Z,20.08
2022-11-30T04:04:19.655Z,20.42
2022-11-30T04:05:51.252Z,18.17
2022-11-30T04:07:22.954Z,21.23
2022-11-30T04:08:54.652Z,21.58
2022-11-30T04:10:26.270Z,20.08
2022-11-30T04:11:57.982Z,18.20
2022-11-30T04:13:31.363Z,18.92
2022-11-30T04:15:03.101Z,17.63
2022-11-30T04:16:34.824Z,19.92
2022-11-30T04:18:06.357Z,16.30
2022-11-30T04:19:38.033Z,18.73
2022-11-30T04:21:10.715Z,19.02
2022-11-30T04:22:42.342Z,20.65
2022-11-30T04:24:13.912Z,18.52
2022-11-30T04:25:45.907Z,16.70
2022-11-30T04:27:17.469Z,16.63
2022-11-30T04:28:49.133Z,19.73
2022-11-30T04:30:20.743Z,20.63
2022-11-30T04:31:52.346Z,17.65
2022-11-30T04:33:24.008Z,16.90
2022-11-30T04:34:55.617Z,17.92
2022-11-30T04:36:27.202Z,17.90
2022-11-30T04:37:59.641Z,16.55
2022-11-30T04:39:33.621Z,19.90
2022-11-30T04:41:08.915Z,17.33
2022-11-30T04:42:41.396Z,18.80
2022-11-30T04:44:13.070Z,17.30
2022-11-30T04:45:45.899Z,19.00
2022-11-30T04:47:17.447Z,21.15
2022-11-30T04:48:49.006Z,17.98
2022-11-30T04:50:20.616Z,16.50
2022-11-30T04:51:52.168Z,18.05
2022-11-30T04:53:23.830Z,16.00
2022-11-30T04:54:56.880Z,17.80
2022-11-30T04:56:28.587Z,16.58
2022-11-30T04:58:00.137Z,19.30
2022-11-30T04:59:31.834Z,18.77
2022-11-30T05:01:03.422Z,16.30
2022-11-30T05:02:35.105Z,18.15
2022-11-30T05:04:06.663Z,16.52
2022-11-30T05:05:38.617Z,19.98
2022-11-30T05:07:10.354Z,21.08
2022-11-30T05:08:41.923Z,17.88
2022-11-30T05:10:13.621Z,19.25
2022-11-30T05:11:46.956Z,20.70
2022-11-30T05:13:18.662Z,23.27
2022-11-30T05:14:50.291Z,20.52
2022-11-30T05:16:21.926Z,19.52
2022-11-30T05:17:53.505Z,16.05
2022-11-30T05:19:25.101Z,19.33
2022-11-30T05:20:56.648Z,17.75
2022-11-30T05:22:28.163Z,15.82
2022-11-30T05:24:00.033Z,18.48
2022-11-30T05:25:31.618Z,17.02
2022-11-30T05:27:06.546Z,17.27
2022-11-30T05:28:42.677Z,17.13
2022-11-30T05:30:14.857Z,18.70
2022-11-30T05:31:46.556Z,22.73
2022-11-30T05:33:18.117Z,21.60
2022-11-30T05:34:51.562Z,19.23
2022-11-30T05:36:23.852Z,17.35
2022-11-30T05:37:55.435Z,23.13
2022-11-30T05:39:27.000Z,18.63
2022-11-30T05:41:02.226Z,18.42
2022-11-30T05:42:33.798Z,18.48
2022-11-30T05:44:06.337Z,25.23
2022-11-30T05:45:37.969Z,20.45
2022-11-30T05:47:09.694Z,17.23
2022-11-30T05:48:41.284Z,19.95
2022-11-30T05:50:12.811Z,17.15
2022-11-30T05:51:44.357Z,19.10
2022-11-30T05:53:15.940Z,19.08
2022-11-30T05:54:47.803Z,19.20
2022-11-30T05:56:21.587Z,23.58
2022-11-30T05:57:53.654Z,18.58
2022-11-30T05:59:25.220Z,21.15
2022-11-30T06:00:57.033Z,19.65
2022-11-30T06:02:28.745Z,17.63
2022-11-30T06:04:03.520Z,17.77
2022-11-30T06:05:37.665Z,15.18
2022-11-30T06:07:11.895Z,16.92
2022-11-30T06:08:44.403Z,17.73
2022-11-30T06:10:15.956Z,16.67
2022-11-30T06:11:47.557Z,17.65
2022-11-30T06:13:21.663Z,15.52
2022-11-30T06:14:56.365Z,16.23
2022-11-30T06:16:28.006Z,14.18
2022-11-30T06:17:59.690Z,14.77
2022-11-30T06:19:31.379Z,15.93
2022-11-30T06:21:05.338Z,14.45
2022-11-30T06:22:36.917Z,15.88
2022-11-30T06:24:10.028Z,16.58
2022-11-30T06:25:41.541Z,15.27
2022-11-30T06:27:13.122Z,14.85
2022-11-30T06:28:48.147Z,14.27
2022-11-30T06:30:20.718Z,15.02
2022-11-30T06:31:52.301Z,14.02
2022-11-30T06:33:24.039Z,14.52
2022-11-30T06:34:55.615Z,13.20
2022-11-30T06:36:32.691Z,16.25
2022-11-30T06:38:07.302Z,16.17
2022-11-30T06:40:06.378Z,14.85
2022-11-30T06:41:30.610Z,14.85
2022-11-30T06:43:02.245Z,14.65
2022-11-30T06:44:33.791Z,14.90
2022-11-30T06:46:06.931Z,13.00
2022-11-30T06:47:38.599Z,14.07
2022-11-30T06:49:10.146Z,13.85
2022-11-30T06:50:48.418Z,16.25
2022-11-30T06:53:59.586Z,16.95
2022-11-30T06:55:32.819Z,13.73
2022-11-30T06:57:04.348Z,14.48
2022-11-30T06:58:37.051Z,16.92
2022-11-30T07:00:09.671Z,16.25
2022-11-30T07:01:41.304Z,15.73
2022-11-30T07:03:14.386Z,17.20
2022-11-30T07:04:47.024Z,16.92
2022-11-30T07:06:19.038Z,13.25
2022-11-30T07:07:50.862Z,16.13
2022-11-30T07:09:22.520Z,15.85
2022-11-30T07:10:54.055Z,18.20
2022-11-30T07:12:26.280Z,16.33
2022-11-30T07:13:57.837Z,18.52
2022-11-30T07:15:29.515Z,16.73
2022-11-30T07:17:04.555Z,16.67
2022-11-30T07:18:36.659Z,17.67
2022-11-30T07:20:08.796Z,17.77
2022-11-30T07:21:40.396Z,18.92
2022-11-30T07:23:30.530Z,15.98
2022-11-30T07:25:20.589Z,17.75
2022-11-30T07:26:52.278Z,17.25
2022-11-30T07:28:23.841Z,19.42
2022-11-30T07:29:55.917Z,17.42
2022-11-30T07:31:34.287Z,17.23
2022-11-30T07:33:05.974Z,19.70
2022-11-30T07:34:37.605Z,17.67
2022-11-30T07:36:10.086Z,18.05
2022-11-30T07:37:41.678Z,19.23
2022-11-30T07:39:14.046Z,16.60
2022-11-30T07:40:45.577Z,17.77
2022-11-30T07:42:17.733Z,19.10
2022-11-30T07:43:49.704Z,16.25
2022-11-30T07:45:21.277Z,19.20
2022-11-30T07:46:52.843Z,16.92
2022-11-30T07:48:24.495Z,16.90
2022-11-30T07:49:56.127Z,16.58
2022-11-30T07:51:27.872Z,17.50
2022-11-30T07:52:59.469Z,18.35
2022-11-30T07:54:31.294Z,16.60
2022-11-30T07:56:07.978Z,18.52
2022-11-30T07:57:39.652Z,17.08
2022-11-30T07:59:11.278Z,15.52
2022-11-30T08:00:42.944Z,17.80
2022-11-30T08:02:14.827Z,17.30
2022-11-30T08:03:46.490Z,17.75
2022-11-30T08:05:18.043Z,16.73
2022-11-30T08:06:49.769Z,16.88
2022-11-30T08:08:21.369Z,18.25
2022-11-30T08:09:52.921Z,16.80
2022-11-30T08:11:30.688Z,17.38
2022-11-30T08:13:02.219Z,17.67
2022-11-30T08:14:50.496Z,16.08
2022-11-30T08:16:27.755Z,16.70
2022-11-30T08:18:05.278Z,16.60
2022-11-30T08:19:37.027Z,15.02
2022-11-30T08:21:10.703Z,15.63
2022-11-30T08:22:42.267Z,19.35
2022-11-30T08:24:14.145Z,18.45
2022-11-30T08:25:45.814Z,17.83
2022-11-30T08:27:17.471Z,19.10
2022-11-30T08:28:50.340Z,20.77
2022-11-30T08:30:25.180Z,19.73
2022-11-30T08:31:59.232Z,18.27
2022-11-30T08:33:31.909Z,20.77
2022-11-30T08:35:03.867Z,19.02
2022-11-30T08:36:35.587Z,16.30
2022-11-30T08:38:07.260Z,15.40
2022-11-30T08:39:39.048Z,20.60
2022-11-30T08:41:12.649Z,16.98
2022-11-30T08:42:44.321Z,16.83
2022-11-30T08:44:15.858Z,16.10
2022-11-30T08:45:49.476Z,15.98
2022-11-30T08:47:24.325Z,14.55
2022-11-30T08:49:12.894Z,15.07
2022-11-30T08:50:47.598Z,14.98
2022-11-30T08:52:19.404Z,16.98
2022-11-30T08:53:51.277Z,15.20
2022-11-30T08:55:22.981Z,16.58
2022-11-30T08:56:54.545Z,17.80
2022-11-30T08:58:27.220Z,14.70
2022-11-30T08:59:58.803Z,16.00
2022-11-30T09:01:32.996Z,17.77
2022-11-30T09:03:05.095Z,16.23
2022-11-30T09:04:36.686Z,15.27
2022-11-30T09:06:10.943Z,15.57
2022-11-30T09:07:42.521Z,15.57
2022-11-30T09:09:14.193Z,18.40
2022-11-30T09:10:45.819Z,16.75
2022-11-30T09:12:17.476Z,19.60
2022-11-30T09:13:50.182Z,14.88
2022-11-30T09:15:21.903Z,17.42
2022-11-30T09:16:55.159Z,13.85
2022-11-30T09:18:26.706Z,15.50
2022-11-30T09:19:58.358Z,17.25
2022-11-30T09:21:30.423Z,16.88
2022-11-30T09:23:02.026Z,16.35
2022-11-30T09:24:33.672Z,16.42
2022-11-30T09:26:08.889Z,16.13
2022-11-30T09:27:40.395Z,16.38
2022-11-30T09:29:12.010Z,19.02
2022-11-30T09:30:43.654Z,17.98
2022-11-30T09:32:15.277Z,17.35
2022-11-30T09:33:47.797Z,17.30
2022-11-30T09:35:19.445Z,19.85
2022-11-30T09:36:51.125Z,16.98
2022-11-30T09:38:22.724Z,21.17
2022-11-30T09:39:54.310Z,17.77
2022-11-30T09:41:28.870Z,16.63
2022-11-30T09:43:22.273Z,18.83
2022-11-30T09:45:20.640Z,17.65
2022-11-30T09:47:38.866Z,16.23
2022-11-30T09:49:13.611Z,14.95
2022-11-30T09:50:48.095Z,20.13
2022-11-30T09:52:37.027Z,16.58
2022-11-30T09:54:14.191Z,16.25
2022-11-30T09:55:46.059Z,16.70
2022-11-30T09:57:17.570Z,17.05
2022-11-30T09:58:56.072Z,14.40
2022-11-30T10:00:28.136Z,17.02
2022-11-30T10:02:13.365Z,14.95
2022-11-30T10:03:45.946Z,15.18
2022-11-30T10:05:26.693Z,19.25
2022-11-30T10:07:17.052Z,16.08
2022-11-30T10:09:22.156Z,16.55
2022-11-30T10:11:31.240Z,15.68
2022-11-30T10:13:35.376Z,17.15
2022-11-30T10:15:22.233Z,15.15
2022-11-30T10:16:53.788Z,17.35
2022-11-30T10:18:28.571Z,16.13
2022-11-30T10:20:21.199Z,15.43
2022-11-30T10:22:14.238Z,14.80
2022-11-30T10:23:49.001Z,17.02
2022-11-30T10:25:52.748Z,16.25
2022-11-30T10:27:47.404Z,17.90
2022-11-30T10:29:19.125Z,15.35
2022-11-30T10:30:50.813Z,17.15
2022-11-30T10:32:35.546Z,19.33
2022-11-30T10:34:35.470Z,15.63
2022-11-30T10:36:15.419Z,15.05
2022-11-30T10:37:48.910Z,14.07
2022-11-30T10:39:27.455Z,16.92
2022-11-30T10:40:58.960Z,13.48
2022-11-30T10:42:53.087Z,16.08
2022-11-30T10:44:30.727Z,13.82
2022-11-30T10:46:02.309Z,14.77
2022-11-30T10:47:37.289Z,15.15
2022-11-30T10:49:16.649Z,18.58
2022-11-30T10:50:48.327Z,15.20
2022-11-30T10:52:27.687Z,15.27
2022-11-30T10:54:00.347Z,15.80
2022-11-30T10:55:39.089Z,11.50
2022-11-30T10:57:11.356Z,17.10
2022-11-30T10:59:10.671Z,12.30
2022-11-30T11:00:51.051Z,13.43
2022-11-30T11:02:42.826Z,13.75
2022-11-30T11:04:19.084Z,16.02
2022-11-30T11:06:23.742Z,11.68
2022-11-30T11:08:05.970Z,15.73
2022-11-30T11:09:46.998Z,11.90
2022-11-30T11:11:39.140Z,12.07
2022-11-30T11:13:19.497Z,12.18
2022-11-30T11:15:10.593Z,11.18
2022-11-30T11:17:05.763Z,9.60
2022-11-30T11:18:52.815Z,12.65
2022-11-30T11:20:45.258Z,14.65
2022-11-30T11:22:25.326Z,14.30
2022-11-30T11:23:58.224Z,12.52
2022-11-30T11:25:37.812Z,17.20
2022-11-30T11:27:29.568Z,15.32
2022-11-30T11:29:01.164Z,13.02
2022-11-30T11:30:33.055Z,16.77
2022-11-30T11:32:21.066Z,14.15
2022-11-30T11:33:54.182Z,14.40
2022-11-30T11:35:38.046Z,16.77
2022-11-30T11:37:33.719Z,15.27
2022-11-30T11:39:25.247Z,16.63
2022-11-30T11:41:05.127Z,17.15
2022-11-30T11:42:52.093Z,14.40
2022-11-30T11:44:27.272Z,14.55
2022-11-30T11:46:12.297Z,16.88
2022-11-30T11:47:45.819Z,16.52
2022-11-30T11:49:23.713Z,13.27
2022-11-30T11:51:09.683Z,15.77
2022-11-30T11:52:41.229Z,13.77
2022-11-30T11:54:40.143Z,13.75
2022-11-30T11:56:28.278Z,14.95
2022-11-30T11:58:03.392Z,17.70
2022-11-30T11:59:47.449Z,15.82
2022-11-30T12:01:41.187Z,15.55
2022-11-30T12:03:38.639Z,17.15
2022-11-30T12:05:17.729Z,20.90
2022-11-30T12:06:54.166Z,18.33
2022-11-30T12:08:35.388Z,16.35
2022-11-30T12:10:49.546Z,15.25
2022-11-30T12:12:13.221Z,15.15
2022-11-30T12:13:46.637Z,17.10
2022-11-30T12:15:18.312Z,13.82
2022-11-30T12:17:08.590Z,14.73
2022-11-30T12:18:43.180Z,17.73
2022-11-30T12:20:18.307Z,15.23
2022-11-30T12:22:08.198Z,14.68
2022-11-30T12:24:03.836Z,16.60
2022-11-30T12:26:12.639Z,15.45
2022-11-30T12:28:19.650Z,18.48
2022-11-30T12:30:00.196Z,15.93
2022-11-30T12:32:02.489Z,14.70
2022-11-30T12:34:02.997Z,16.20
2022-11-30T12:35:54.702Z,14.10
2022-11-30T12:37:53.986Z,15.57
2022-11-30T12:39:47.578Z,14.98
2022-11-30T12:41:26.139Z,16.35
2022-11-30T12:43:16.785Z,15.35
2022-11-30T12:45:17.077Z,15.50
2022-11-30T12:47:18.472Z,14.50
2022-11-30T12:49:11.797Z,14.00
2022-11-30T12:50:52.523Z,12.60
2022-11-30T12:52:32.663Z,11.40
2022-11-30T12:54:28.185Z,10.90
2022-11-30T12:56:18.717Z,14.05
2022-11-30T12:57:53.161Z,13.05
2022-11-30T12:59:45.915Z,12.85
2022-11-30T13:01:52.370Z,10.90
2022-11-30T13:03:42.700Z,13.20
2022-11-30T13:05:27.229Z,13.25
2022-11-30T13:07:26.970Z,13.85
2022-11-30T13:09:06.244Z,13.68
2022-11-30T13:10:44.493Z,14.10
2022-11-30T13:12:38.124Z,12.27
2022-11-30T13:14:21.442Z,12.80
2022-11-30T13:15:53.657Z,15.40
2022-11-30T13:17:26.745Z,13.77
2022-11-30T13:19:29.293Z,12.63
2022-11-30T13:21:15.298Z,14.48
2022-11-30T13:23:10.061Z,16.10
2022-11-30T13:24:47.614Z,13.13
2022-11-30T13:26:25.227Z,15.57
2022-11-30T13:28:10.996Z,17.52
2022-11-30T13:29:45.811Z,13.98
2022-11-30T13:31:43.991Z,15.07
2022-11-30T13:33:33.748Z,16.65
2022-11-30T13:35:30.093Z,16.02
2022-11-30T13:37:21.996Z,14.48
2022-11-30T13:39:22.690Z,15.13
2022-11-30T13:41:03.168Z,12.30
2022-11-30T13:42:44.999Z,14.73
2022-11-30T13:44:39.138Z,14.00
2022-11-30T13:46:11.928Z,12.48
2022-11-30T13:47:49.360Z,13.63
2022-11-30T13:49:22.330Z,15.48
2022-11-30T13:50:54.817Z,12.70
2022-11-30T13:53:00.484Z,15.20
2022-11-30T13:54:39.170Z,13.70
2022-11-30T13:56:19.496Z,12.02
2022-11-30T13:57:51.159Z,11.52
2022-11-30T13:59:25.573Z,30.60
2022-11-30T14:01:25.823Z,15.95
2022-11-30T14:02:59.008Z,17.45
2022-11-30T14:04:32.176Z,11.98
2022-11-30T14:06:41.297Z,15.52
2022-11-30T14:08:20.648Z,14.05
2022-11-30T14:09:57.119Z,13.95
2022-11-30T14:11:37.705Z,14.05
2022-11-30T14:13:09.861Z,12.55
2022-11-30T14:14:46.202Z,12.70
2022-11-30T14:16:22.737Z,15.10
2022-11-30T14:17:57.382Z,15.32
2022-11-30T14:19:29.187Z,12.48
2022-11-30T14:21:15.650Z,14.65
2022-11-30T14:22:48.582Z,12.20
2022-11-30T14:24:23.217Z,13.15
2022-11-30T14:25:57.284Z,34.50
2022-11-30T14:27:29.954Z,18.23
2022-11-30T14:29:07.541Z,15.30
2022-11-30T14:30:40.134Z,16.02
2022-11-30T14:32:13.560Z,15.93
2022-11-30T14:33:54.634Z,17.55
2022-11-30T14:35:30.271Z,17.80
2022-11-30T14:37:20.849Z,15.35
2022-11-30T14:38:52.530Z,14.25
2022-11-30T14:40:27.882Z,12.95
2022-11-30T14:42:00.503Z,16.98
2022-11-30T14:43:32.262Z,13.48
2022-11-30T14:45:04.257Z,16.02
2022-11-30T14:46:36.029Z,15.00
2022-11-30T14:48:13.776Z,16.45
2022-11-30T14:49:52.338Z,17.40
2022-11-30T14:51:24.096Z,19.52
2022-11-30T14:53:20.443Z,17.15
2022-11-30T14:55:10.389Z,17.42
2022-11-30T14:56:47.895Z,18.50
2022-11-30T14:58:42.247Z,17.00
2022-11-30T15:00:19.862Z,14.20
2022-11-30T15:02:00.544Z,15.48
2022-11-30T15:03:40.282Z,17.48
2022-11-30T15:05:20.872Z,15.60
2022-11-30T15:06:53.436Z,19.38
2022-11-30T15:08:32.926Z,15.07
2022-11-30T15:10:08.421Z,17.08
2022-11-30T15:11:46.904Z,17.33
2022-11-30T15:13:20.358Z,18.00
2022-11-30T15:15:27.920Z,15.90
2022-11-30T15:16:59.662Z,16.10
2022-11-30T15:18:31.199Z,15.73
2022-11-30T15:20:04.053Z,16.13
2022-11-30T15:21:35.709Z,16.00
2022-11-30T15:23:13.143Z,20.83
2022-11-30T15:24:45.110Z,20.48
2022-11-30T15:26:21.240Z,16.95
2022-11-30T15:27:53.118Z,20.33
2022-11-30T15:29:45.580Z,22.33
2022-11-30T15:31:17.744Z,21.08
2022-11-30T15:32:52.348Z,17.95
2022-11-30T15:34:45.586Z,15.60
2022-11-30T15:36:32.464Z,18.63
2022-11-30T15:38:09.035Z,14.18
2022-11-30T15:39:44.749Z,17.10
2022-11-30T15:41:19.322Z,14.00
2022-11-30T15:42:51.106Z,15.45
2022-11-30T15:44:45.260Z,15.10
2022-11-30T15:46:41.251Z,17.13
2022-11-30T15:48:31.253Z,18.45
2022-11-30T15:50:28.659Z,18.05
2022-11-30T15:52:12.501Z,16.83
2022-11-30T15:53:51.744Z,17.02
2022-11-30T15:55:52.183Z,12.85
2022-11-30T15:57:25.931Z,17.88
2022-11-30T15:59:03.437Z,15.43
2022-11-30T16:00:35.065Z,14.77
2022-11-30T16:02:14.562Z,15.20
2022-11-30T16:03:55.319Z,15.48
2022-11-30T16:05:27.660Z,12.70
2022-11-30T16:06:59.376Z,13.63
2022-11-30T16:08:31.925Z,14.05
2022-11-30T16:10:27.485Z,15.75
2022-11-30T16:12:01.146Z,18.70
2022-11-30T16:13:33.151Z,18.92
2022-11-30T16:15:16.485Z,13.02
2022-11-30T16:16:48.546Z,20.27
2022-11-30T16:18:26.371Z,20.63
2022-11-30T16:19:58.132Z,27.70
2022-11-30T16:21:29.905Z,21.23
2022-11-30T16:23:05.733Z,18.35
2022-11-30T16:24:37.830Z,13.18
2022-11-30T16:26:43.217Z,16.27
2022-11-30T16:28:06.179Z,12.95
2022-11-30T16:29:37.811Z,12.80
2022-11-30T16:31:16.171Z,28.38
2022-11-30T16:32:48.650Z,21.98
2022-11-30T16:34:20.317Z,34.53
2022-11-30T16:36:00.852Z,21.65
2022-11-30T16:37:32.648Z,14.43
2022-11-30T16:39:04.943Z,14.20
2022-11-30T16:40:39.017Z,15.00
2022-11-30T16:42:12.583Z,12.60
2022-11-30T16:43:45.457Z,12.35
2022-11-30T16:45:23.188Z,11.98
2022-11-30T16:46:54.913Z,11.02
2022-11-30T16:48:26.531Z,14.55
2022-11-30T16:49:58.065Z,11.35
2022-11-30T16:51:34.448Z,15.35
2022-11-30T16:53:06.101Z,14.07
2022-11-30T16:54:37.764Z,13.52
2022-11-30T16:56:14.232Z,10.85
2022-11-30T16:57:46.039Z,11.90
2022-11-30T16:59:17.813Z,13.35
2022-11-30T17:00:49.661Z,15.25
2022-11-30T17:02:23.760Z,13.13
2022-11-30T17:03:56.102Z,10.25
2022-11-30T17:05:28.586Z,11.65
2022-11-30T17:07:02.798Z,12.15
2022-11-30T17:08:34.896Z,14.32
2022-11-30T17:10:07.582Z,12.70
2022-11-30T17:11:40.345Z,13.15
2022-11-30T17:13:15.644Z,12.82
2022-11-30T17:14:47.672Z,12.38
2022-11-30T17:16:19.861Z,13.07
2022-11-30T17:17:51.747Z,10.85
2022-11-30T17:19:23.376Z,11.25
2022-11-30T17:20:55.273Z,11.30
2022-11-30T17:22:26.903Z,11.52
2022-11-30T17:23:58.908Z,11.57
2022-11-30T17:25:30.633Z,13.73
2022-11-30T17:27:02.298Z,11.98
2022-11-30T17:28:33.967Z,14.02
2022-11-30T17:30:06.478Z,11.57
2022-11-30T17:31:38.671Z,11.07
2022-11-30T17:33:10.377Z,11.57
2022-11-30T17:34:41.995Z,11.13
2022-11-30T17:36:14.866Z,12.18
2022-11-30T17:37:46.572Z,10.93
2022-11-30T17:39:18.291Z,11.70
2022-11-30T17:40:49.990Z,12.75
2022-11-30T17:42:22.426Z,10.50
2022-11-30T17:43:54.072Z,10.55
2022-11-30T17:45:25.686Z,11.32
2022-11-30T17:46:57.525Z,10.77
2022-11-30T17:48:30.968Z,15.05
2022-11-30T17:50:02.652Z,8.43
2022-11-30T17:51:34.424Z,8.68
2022-11-30T17:53:06.427Z,7.50
2022-11-30T17:54:38.044Z,10.65
2022-11-30T17:56:11.021Z,9.27
2022-11-30T17:57:42.651Z,7.18
2022-11-30T17:59:14.464Z,8.15
2022-11-30T18:00:46.514Z,10.13
2022-11-30T18:02:18.273Z,8.43
2022-11-30T18:03:50.905Z,8.77
2022-11-30T18:05:22.529Z,7.13
2022-11-30T18:06:54.229Z,10.50
2022-11-30T18:08:25.854Z,9.63
2022-11-30T18:09:58.623Z,9.95
2022-11-30T18:11:30.288Z,10.20
2022-11-30T18:13:01.972Z,8.18
2022-11-30T18:14:33.633Z,7.88
2022-11-30T18:16:13.910Z,10.18
2022-11-30T18:17:45.528Z,8.65
2022-11-30T18:19:17.998Z,8.75
2022-11-30T18:20:49.654Z,9.35
2022-11-30T18:22:21.386Z,8.95
2022-11-30T18:23:53.751Z,8.55
2022-11-30T18:25:25.423Z,9.25
2022-11-30T18:26:57.067Z,8.70
2022-11-30T18:28:29.059Z,9.00
2022-11-30T18:30:02.033Z,7.93
2022-11-30T18:31:36.635Z,8.80
2022-11-30T18:33:09.089Z,10.80
2022-11-30T18:34:41.209Z,10.02
2022-11-30T18:36:13.010Z,9.95
2022-11-30T18:37:44.649Z,11.50
2022-11-30T18:39:16.384Z,9.80
2022-11-30T18:40:48.063Z,7.95
2022-11-30T18:42:20.654Z,10.23
2022-11-30T18:43:53.675Z,10.32
2022-11-30T18:45:25.492Z,9.57
2022-11-30T18:46:57.361Z,10.82
2022-11-30T18:48:29.028Z,8.82
2022-11-30T18:50:03.505Z,11.73
2022-11-30T18:51:35.246Z,9.23
2022-11-30T18:53:07.007Z,10.85
2022-11-30T18:54:38.636Z,10.75
2022-11-30T18:56:20.823Z,10.73
2022-11-30T18:57:52.497Z,9.75
2022-11-30T18:59:24.421Z,11.05
2022-11-30T19:00:56.091Z,11.25
2022-11-30T19:02:28.175Z,11.13
2022-11-30T19:04:02.980Z,11.30
2022-11-30T19:05:36.741Z,12.57
2022-11-30T19:07:08.543Z,11.57
2022-11-30T19:08:40.978Z,12.50
2022-11-30T19:10:12.679Z,13.45
2022-11-30T19:11:45.131Z,13.35
2022-11-30T19:13:16.759Z,12.18
2022-11-30T19:14:49.415Z,12.25
2022-11-30T19:16:21.864Z,11.82
2022-11-30T19:17:55.471Z,10.45
2022-11-30T19:19:27.126Z,11.80
2022-11-30T19:20:59.207Z,11.18
2022-11-30T19:22:31.256Z,11.73
2022-11-30T19:24:03.716Z,12.68
2022-11-30T19:25:35.671Z,12.32
2022-11-30T19:27:07.416Z,15.30
2022-11-30T19:28:41.085Z,16.52
2022-11-30T19:30:13.439Z,14.90
2022-11-30T19:31:45.208Z,16.25
2022-11-30T19:33:17.000Z,13.55
2022-11-30T19:34:49.457Z,15.15
2022-11-30T19:36:29.465Z,15.23
2022-11-30T19:38:03.009Z,15.77
2022-11-30T19:39:34.678Z,17.52
2022-11-30T19:41:08.443Z,15.15
2022-11-30T19:42:40.195Z,19.10
2022-11-30T19:44:14.575Z,16.45
2022-11-30T19:45:46.318Z,16.35
2022-11-30T19:47:18.080Z,14.02
2022-11-30T19:48:55.592Z,14.38
2022-11-30T19:50:27.489Z,15.52
2022-11-30T19:51:59.263Z,15.85
2022-11-30T19:53:31.063Z,13.57
2022-11-30T19:55:02.829Z,17.88
2022-11-30T19:56:34.800Z,19.77
2022-11-30T19:58:06.686Z,14.95
2022-11-30T19:59:38.575Z,16.23
2022-11-30T20:01:15.497Z,16.23
2022-11-30T20:02:49.610Z,20.40
2022-11-30T20:04:21.863Z,16.67
2022-11-30T20:05:54.343Z,19.83
2022-11-30T20:07:27.077Z,18.55
2022-11-30T20:08:59.895Z,16.92
2022-11-30T20:10:32.483Z,20.05
2022-11-30T20:12:04.662Z,20.15
2022-11-30T20:13:36.902Z,13.40
2022-11-30T20:15:10.209Z,14.73
2022-11-30T20:16:43.546Z,16.50
2022-11-30T20:18:15.903Z,15.38
2022-11-30T20:19:48.319Z,16.73
2022-11-30T20:21:23.521Z,15.30
2022-11-30T20:22:55.311Z,15.10
2022-11-30T20:24:26.969Z,15.57
2022-11-30T20:25:58.749Z,15.60
2022-11-30T20:27:30.434Z,13.68
2022-11-30T20:29:04.122Z,15.55
2022-11-30T20:30:36.204Z,16.30
2022-11-30T20:32:09.652Z,15.98
2022-11-30T20:33:43.204Z,16.60
2022-11-30T20:35:15.485Z,15.55
2022-11-30T20:36:48.173Z,14.05
2022-11-30T20:38:19.964Z,15.07
2022-11-30T20:39:51.636Z,17.23
2022-11-30T20:41:24.439Z,18.67
2022-11-30T20:42:56.299Z,14.32
2022-11-30T20:44:28.043Z,16.00
2022-11-30T20:45:59.973Z,16.85